createdAt,value
2023-05-25T00:00:49.841Z,99169.81
2023-05-25T00:03:06.504Z,99169.78
2023-05-25T00:05:11.461Z,99166.50
2023-05-25T00:07:13.495Z,99173.63
2023-05-25T00:09:15.092Z,99175.84
2023-05-25T00:11:19.673Z,99176.91
2023-05-25T00:13:21.400Z,99173.88
2023-05-25T00:15:25.397Z,99176.06
2023-05-25T00:17:33.690Z,99170.28
2023-05-25T00:19:36.037Z,99171.66
2023-05-25T00:21:43.448Z,99168.63
2023-05-25T00:23:44.943Z,99173.56
2023-05-25T00:25:46.888Z,99177.66
2023-05-25T00:27:48.491Z,99174.38
2023-05-25T00:29:50.138Z,99159.50
2023-05-25T00:31:52.731Z,99160.03
2023-05-25T00:34:00.610Z,99164.09
2023-05-25T00:36:03.358Z,99153.63
2023-05-25T00:38:05.273Z,99155.00
2023-05-25T00:40:10.696Z,99147.31
2023-05-25T00:42:12.401Z,99152.50
2023-05-25T00:44:17.397Z,99151.13
2023-05-25T00:46:23.443Z,99156.31
2023-05-25T00:48:28.019Z,99157.94
2023-05-25T00:50:43.372Z,99163.97
2023-05-25T00:52:50.696Z,99158.19
2023-05-25T00:54:59.848Z,99157.06
2023-05-25T00:57:04.133Z,99152.09
2023-05-25T00:59:08.279Z,99152.66
2023-05-25T01:01:13.590Z,99150.44
2023-05-25T01:03:21.835Z,99150.94
2023-05-25T01:05:29.122Z,99155.06
2023-05-25T01:07:32.841Z,99153.66
2023-05-25T01:09:36.602Z,99162.41
2023-05-25T01:11:42.178Z,99162.94
2023-05-25T01:13:44.352Z,99159.63
2023-05-25T01:15:47.519Z,99153.88
2023-05-25T01:18:02.759Z,99149.72
2023-05-25T01:20:11.265Z,99151.34
2023-05-25T01:22:19.116Z,99157.34
2023-05-25T01:24:32.234Z,99153.47
2023-05-25T01:26:38.489Z,99152.94
2023-05-25T01:28:46.762Z,99154.53
2023-05-25T01:30:50.745Z,99158.63
2023-05-25T01:32:56.722Z,99161.06
2023-05-25T01:35:01.288Z,99156.38
2023-05-25T01:37:03.165Z,99157.72
2023-05-25T01:39:07.251Z,99150.84
2023-05-25T01:41:12.215Z,99161.50
2023-05-25T01:43:13.892Z,99149.97
2023-05-25T01:45:19.666Z,99154.91
2023-05-25T01:47:40.912Z,99153.19
2023-05-25T01:50:06.387Z,99155.03
2023-05-25T01:52:28.024Z,99147.91
2023-05-25T01:54:50.409Z,99161.28
2023-05-25T01:56:56.571Z,99164.00
2023-05-25T01:58:59.032Z,99163.41
2023-05-25T02:01:08.698Z,99173.00
2023-05-25T02:03:10.883Z,99161.72
2023-05-25T02:05:13.283Z,99166.63
2023-05-25T02:07:17.272Z,99170.72
2023-05-25T02:09:19.522Z,99161.09
2023-05-25T02:11:21.874Z,99167.09
2023-05-25T02:13:23.724Z,99165.69
2023-05-25T02:15:25.724Z,99164.28
2023-05-25T02:17:27.991Z,99170.28
2023-05-25T02:19:30.194Z,99161.50
2023-05-25T02:21:32.657Z,99160.94
2023-05-25T02:23:38.226Z,99163.34
2023-05-25T02:25:44.995Z,99157.31
2023-05-25T02:27:48.585Z,99158.66
2023-05-25T02:29:50.971Z,99150.94
2023-05-25T02:31:52.574Z,99150.63
2023-05-25T02:33:54.191Z,99150.88
2023-05-25T02:35:56.154Z,99155.78
2023-05-25T02:37:57.652Z,99153.56
2023-05-25T02:39:59.494Z,99152.16
2023-05-25T02:42:01.576Z,99152.44
2023-05-25T02:44:03.456Z,99157.34
2023-05-25T02:46:06.428Z,99156.75
2023-05-25T02:48:08.542Z,99160.00
2023-05-25T02:50:10.557Z,99171.22
2023-05-25T02:52:17.836Z,99164.34
2023-05-25T02:54:20.756Z,99160.47
2023-05-25T02:56:24.839Z,99167.00
2023-05-25T02:58:26.404Z,99165.59
2023-05-25T03:00:50.796Z,99162.56
2023-05-25T03:02:52.880Z,99174.84
2023-05-25T03:04:54.731Z,99175.09
2023-05-25T03:06:56.457Z,99172.84
2023-05-25T03:08:57.945Z,99177.75
2023-05-25T03:10:59.845Z,99176.13
2023-05-25T03:13:01.734Z,99178.53
2023-05-25T03:15:04.666Z,99178.78
2023-05-25T03:17:06.491Z,99182.59
2023-05-25T03:19:08.572Z,99185.84
2023-05-25T03:21:12.278Z,99186.34
2023-05-25T03:23:14.027Z,99184.69
2023-05-25T03:25:18.316Z,99189.59
2023-05-25T03:27:20.141Z,99188.19
2023-05-25T03:29:22.970Z,99193.91
2023-05-25T03:31:24.745Z,99204.28
2023-05-25T03:33:26.590Z,99205.63
2023-05-25T03:35:28.719Z,99208.59
2023-05-25T03:37:30.390Z,99202.50
2023-05-25T03:39:33.671Z,99209.09
2023-05-25T03:41:35.261Z,99201.38
2023-05-25T03:43:36.875Z,99206.84
2023-05-25T03:45:40.560Z,99203.75
2023-05-25T03:47:42.366Z,99211.16
2023-05-25T03:49:43.993Z,99218.53
2023-05-25T03:51:45.516Z,99217.97
2023-05-25T03:53:48.088Z,99212.72
2023-05-25T03:55:52.095Z,99216.56
2023-05-25T03:57:53.850Z,99214.31
2023-05-25T03:59:56.370Z,99220.84
2023-05-25T04:01:59.456Z,99221.69
2023-05-25T04:04:03.263Z,99230.13
2023-05-25T04:06:05.035Z,99232.06
2023-05-25T04:08:10.754Z,99235.88
2023-05-25T04:10:12.568Z,99235.03
2023-05-25T04:12:14.434Z,99240.50
2023-05-25T04:14:21.365Z,99226.00
2023-05-25T04:16:23.562Z,99228.72
2023-05-25T04:18:25.219Z,99238.03
2023-05-25T04:20:26.917Z,99247.06
2023-05-25T04:22:28.536Z,99242.66
2023-05-25T04:24:35.365Z,99248.13
2023-05-25T04:26:39.649Z,99249.19
2023-05-25T04:28:41.890Z,99255.50
2023-05-25T04:31:03.863Z,99249.19
2023-05-25T04:33:24.721Z,99251.94
2023-05-25T04:35:46.839Z,99248.13
2023-05-25T04:37:49.045Z,99256.91
2023-05-25T04:39:51.404Z,99262.16
2023-05-25T04:41:53.431Z,99259.16
2023-05-25T04:44:07.959Z,99255.38
2023-05-25T04:46:16.955Z,99259.75
2023-05-25T04:48:19.414Z,99255.94
2023-05-25T04:50:21.878Z,99260.34
2023-05-25T04:52:23.557Z,99258.19
2023-05-25T04:54:25.453Z,99261.50
2023-05-25T04:56:29.166Z,99259.31
2023-05-25T04:58:33.530Z,99262.63
2023-05-25T05:00:41.019Z,99270.34
2023-05-25T05:02:44.403Z,99272.03
2023-05-25T05:04:48.363Z,99270.81
2023-05-25T05:06:50.011Z,99278.53
2023-05-25T05:08:54.813Z,99273.63
2023-05-25T05:10:57.041Z,99274.19
2023-05-25T05:13:00.088Z,99271.81
2023-05-25T05:15:02.054Z,99275.69
2023-05-25T05:17:04.503Z,99276.84
2023-05-25T05:19:06.288Z,99276.91
2023-05-25T05:21:07.933Z,99280.56
2023-05-25T05:23:16.930Z,99280.41
2023-05-25T05:25:19.002Z,99271.16
2023-05-25T05:27:22.446Z,99270.16
2023-05-25T05:29:29.718Z,99282.81
2023-05-25T05:31:32.176Z,99269.53
2023-05-25T05:33:34.240Z,99277.63
2023-05-25T05:35:36.893Z,99278.34
2023-05-25T05:37:48.458Z,99282.59
2023-05-25T05:39:52.406Z,99278.88
2023-05-25T05:41:54.935Z,99280.44
2023-05-25T05:43:56.548Z,99282.22
2023-05-25T05:45:58.058Z,99274.66
2023-05-25T05:47:59.642Z,99278.88
2023-05-25T05:50:02.067Z,99272.13
2023-05-25T05:52:05.494Z,99281.63
2023-05-25T05:54:07.378Z,99285.56
2023-05-25T05:56:17.557Z,99282.94
2023-05-25T05:58:22.339Z,99277.28
2023-05-25T06:00:24.590Z,99279.91
2023-05-25T06:02:26.902Z,99287.16
2023-05-25T06:04:29.239Z,99283.91
2023-05-25T06:06:34.947Z,99287.31
2023-05-25T06:08:36.890Z,99284.06
2023-05-25T06:10:38.650Z,99281.94
2023-05-25T06:12:48.667Z,99285.84
2023-05-25T06:14:52.213Z,99282.59
2023-05-25T06:16:54.404Z,99285.63
2023-05-25T06:18:56.353Z,99273.25
2023-05-25T06:20:58.093Z,99275.41
2023-05-25T06:22:59.711Z,99272.09
2023-05-25T06:25:01.803Z,99276.19
2023-05-25T06:27:03.747Z,99273.66
2023-05-25T06:29:09.003Z,99267.00
2023-05-25T06:31:10.733Z,99273.00
2023-05-25T06:33:12.966Z,99270.16
2023-05-25T06:35:19.639Z,99274.50
2023-05-25T06:37:27.452Z,99274.38
2023-05-25T06:39:32.599Z,99273.19
2023-05-25T06:41:38.625Z,99263.69
2023-05-25T06:43:40.396Z,99259.44
2023-05-25T06:45:50.769Z,99267.28
2023-05-25T06:47:54.298Z,99268.31
2023-05-25T06:49:56.714Z,99273.94
2023-05-25T06:51:58.311Z,99273.25
2023-05-25T06:54:00.299Z,99268.97
2023-05-25T06:56:01.895Z,99263.84
2023-05-25T06:58:03.763Z,99259.00
2023-05-25T07:00:09.672Z,99262.47
2023-05-25T07:02:11.590Z,99263.22
2023-05-25T07:04:13.349Z,99262.25
2023-05-25T07:06:19.823Z,99274.28
2023-05-25T07:08:21.372Z,99273.63
2023-05-25T07:10:22.901Z,99274.91
2023-05-25T07:12:27.065Z,99267.88
2023-05-25T07:14:28.861Z,99269.16
2023-05-25T07:16:31.970Z,99272.91
2023-05-25T07:18:33.612Z,99273.34
2023-05-25T07:20:38.615Z,99267.13
2023-05-25T07:22:40.426Z,99265.31
2023-05-25T07:24:41.974Z,99262.16
2023-05-25T07:26:44.538Z,99267.53
2023-05-25T07:28:46.444Z,99270.44
2023-05-25T07:30:53.556Z,99270.25
2023-05-25T07:32:55.261Z,99270.91
2023-05-25T07:34:56.978Z,99265.16
2023-05-25T07:36:58.674Z,99280.47
2023-05-25T07:39:00.280Z,99277.03
2023-05-25T07:41:03.234Z,99274.88
2023-05-25T07:43:08.108Z,99280.22
2023-05-25T07:45:11.194Z,99280.03
2023-05-25T07:47:12.868Z,99266.25
2023-05-25T07:49:17.712Z,99267.66
2023-05-25T07:51:22.280Z,99274.13
2023-05-25T07:53:24.188Z,99264.75
2023-05-25T07:55:26.859Z,99275.34
2023-05-25T07:57:29.678Z,99272.34
2023-05-25T07:59:31.315Z,99276.84
2023-05-25T08:01:32.978Z,99261.88
2023-05-25T08:03:48.149Z,99265.25
2023-05-25T08:05:54.170Z,99262.38
2023-05-25T08:07:57.857Z,99260.16
2023-05-25T08:09:59.900Z,99264.69
2023-05-25T08:12:24.149Z,99260.50
2023-05-25T08:14:23.926Z,99257.94
2023-05-25T08:16:26.061Z,99256.84
2023-05-25T08:18:27.565Z,99256.56
2023-05-25T08:20:29.363Z,99259.06
2023-05-25T08:22:30.881Z,99257.97
2023-05-25T08:24:32.725Z,99253.28
2023-05-25T08:26:53.055Z,99262.16
2023-05-25T08:28:56.469Z,99263.47
2023-05-25T08:30:58.789Z,99256.81
2023-05-25T08:33:00.558Z,99254.53
2023-05-25T08:35:03.756Z,99247.81
2023-05-25T08:37:07.010Z,99250.28
2023-05-25T08:39:09.275Z,99254.75
2023-05-25T08:41:17.436Z,99252.44
2023-05-25T08:43:19.060Z,99248.16
2023-05-25T08:45:34.384Z,99260.16
2023-05-25T08:47:42.644Z,99256.38
2023-05-25T08:49:45.195Z,99257.66
2023-05-25T08:51:51.965Z,99264.56
2023-05-25T08:53:55.178Z,99259.13
2023-05-25T08:55:58.867Z,99250.38
2023-05-25T08:58:07.282Z,99251.97
2023-05-25T09:00:11.527Z,99248.16
2023-05-25T09:02:26.897Z,99247.47
2023-05-25T09:04:29.784Z,99255.31
2023-05-25T09:06:36.808Z,99253.44
2023-05-25T09:08:42.101Z,99256.78
2023-05-25T09:10:43.919Z,99239.25
2023-05-25T09:12:46.639Z,99236.06
2023-05-25T09:14:49.379Z,99250.97
2023-05-25T09:16:51.230Z,99245.78
2023-05-25T09:18:52.857Z,99243.75
2023-05-25T09:20:55.434Z,99246.44
2023-05-25T09:23:01.007Z,99240.94
2023-05-25T09:25:08.327Z,99241.78
2023-05-25T09:27:17.508Z,99252.22
2023-05-25T09:29:19.677Z,99238.59
2023-05-25T09:31:23.945Z,99240.16
2023-05-25T09:33:26.508Z,99242.13
2023-05-25T09:35:31.384Z,99244.50
2023-05-25T09:37:33.218Z,99242.41
2023-05-25T09:39:35.682Z,99247.59
2023-05-25T09:41:41.023Z,99245.47
2023-05-25T09:43:48.843Z,99242.56
2023-05-25T09:45:56.361Z,99238.00
2023-05-25T09:48:01.758Z,99238.22
2023-05-25T09:50:04.244Z,99244.56
2023-05-25T09:52:07.119Z,99253.66
2023-05-25T09:54:12.595Z,99244.31
2023-05-25T09:56:14.426Z,99245.00
2023-05-25T09:58:16.247Z,99244.88
2023-05-25T10:00:18.298Z,99230.66
2023-05-25T10:02:19.996Z,99236.16
2023-05-25T10:04:21.591Z,99229.91
2023-05-25T10:06:26.943Z,99230.13
2023-05-25T10:08:30.152Z,99234.44
2023-05-25T10:10:32.786Z,99232.28
2023-05-25T10:12:35.320Z,99233.41
2023-05-25T10:14:38.627Z,99230.91
2023-05-25T10:16:42.287Z,99232.38
2023-05-25T10:18:49.721Z,99235.47
2023-05-25T10:20:57.204Z,99242.94
2023-05-25T10:23:10.830Z,99235.84
2023-05-25T10:25:26.148Z,99231.59
2023-05-25T10:27:38.653Z,99226.53
2023-05-25T10:29:40.622Z,99235.97
2023-05-25T10:31:42.850Z,99237.31
2023-05-25T10:33:49.178Z,99232.66
2023-05-25T10:36:09.070Z,99240.00
2023-05-25T10:38:15.929Z,99237.03
2023-05-25T10:40:19.273Z,99235.94
2023-05-25T10:42:21.011Z,99237.31
2023-05-25T10:44:23.242Z,99243.47
2023-05-25T10:46:26.082Z,99238.72
2023-05-25T10:48:38.538Z,99234.81
2023-05-25T10:50:40.524Z,99232.91
2023-05-25T10:52:57.871Z,99236.69
2023-05-25T10:55:04.781Z,99233.22
2023-05-25T10:57:11.168Z,99236.19
2023-05-25T10:59:13.555Z,99228.28
2023-05-25T11:01:16.269Z,99223.19
2023-05-25T11:03:20.838Z,99226.09
2023-05-25T11:05:31.288Z,99227.78
2023-05-25T11:07:55.875Z,99225.13
2023-05-25T11:09:59.367Z,99229.72
2023-05-25T11:12:03.520Z,99226.59
2023-05-25T11:14:05.352Z,99218.19
2023-05-25T11:16:26.313Z,99223.50
2023-05-25T11:18:38.083Z,99221.63
2023-05-25T11:20:40.266Z,99222.13
2023-05-25T11:22:42.479Z,99209.38
2023-05-25T11:24:50.352Z,99220.34
2023-05-25T11:26:57.283Z,99210.41
2023-05-25T11:29:00.473Z,99214.53
2023-05-25T11:31:09.696Z,99213.91
2023-05-25T11:33:21.726Z,99212.31
2023-05-25T11:35:24.896Z,99214.38
2023-05-25T11:37:31.336Z,99214.81
2023-05-25T11:39:33.292Z,99193.50
2023-05-25T11:41:36.440Z,99205.28
2023-05-25T11:43:38.368Z,99205.72
2023-05-25T11:45:40.197Z,99204.97
2023-05-25T11:47:42.023Z,99196.94
2023-05-25T11:49:46.167Z,99199.00
2023-05-25T11:51:48.024Z,99196.25
2023-05-25T11:53:50.049Z,99189.44
2023-05-25T11:55:55.602Z,99194.25
2023-05-25T11:58:05.848Z,99183.81
2023-05-25T12:00:11.372Z,99195.09
2023-05-25T12:02:17.660Z,99194.34
2023-05-25T12:04:21.725Z,99187.47
2023-05-25T12:06:34.168Z,99189.94
2023-05-25T12:08:36.540Z,99194.00
2023-05-25T12:10:50.342Z,99192.38
2023-05-25T12:12:53.137Z,99190.41
2023-05-25T12:14:55.351Z,99184.78
2023-05-25T12:16:58.465Z,99182.75
2023-05-25T12:19:01.897Z,99183.59
2023-05-25T12:21:08.275Z,99186.47
2023-05-25T12:23:10.229Z,99178.00
2023-05-25T12:25:12.937Z,99179.69
2023-05-25T12:27:23.037Z,99178.13
2023-05-25T12:29:28.243Z,99178.53
2023-05-25T12:31:35.200Z,99170.81
2023-05-25T12:33:37.074Z,99174.47
2023-05-25T12:35:50.175Z,99174.47
2023-05-25T12:38:10.674Z,99168.81
2023-05-25T12:40:20.720Z,99162.44
2023-05-25T12:42:22.690Z,99157.63
2023-05-25T12:44:31.338Z,99162.53
2023-05-25T12:46:33.367Z,99162.16
2023-05-25T12:48:35.027Z,99156.94
2023-05-25T12:50:37.168Z,99157.38
2023-05-25T12:52:44.367Z,99154.97
2023-05-25T12:54:47.111Z,99161.88
2023-05-25T12:56:56.693Z,99147.31
2023-05-25T12:59:14.511Z,99153.41
2023-05-25T13:01:16.705Z,99152.22
2023-05-25T13:03:18.389Z,99164.69
2023-05-25T13:05:31.263Z,99153.78
2023-05-25T13:07:33.424Z,99161.88
2023-05-25T13:09:35.867Z,99149.75
2023-05-25T13:11:37.845Z,99157.88
2023-05-25T13:13:39.438Z,99151.78
2023-05-25T13:15:41.218Z,99148.97
2023-05-25T13:17:43.825Z,99142.09
2023-05-25T13:19:46.037Z,99149.75
2023-05-25T13:21:52.212Z,99137.22
2023-05-25T13:23:54.480Z,99134.03
2023-05-25T13:25:56.062Z,99140.88
2023-05-25T13:27:58.288Z,99136.03
2023-05-25T13:30:00.254Z,99138.47
2023-05-25T13:32:04.787Z,99126.38
2023-05-25T13:34:06.852Z,99126.75
2023-05-25T13:36:09.085Z,99136.84
2023-05-25T13:38:11.676Z,99134.78
2023-05-25T13:40:16.322Z,99135.97
2023-05-25T13:42:18.353Z,99129.09
2023-05-25T13:44:20.068Z,99131.88
2023-05-25T13:46:33.533Z,99137.09
2023-05-25T13:48:36.654Z,99135.03
2023-05-25T13:50:38.377Z,99136.59
2023-05-25T13:52:39.857Z,99130.50
2023-05-25T13:54:41.681Z,99130.06
2023-05-25T13:56:43.251Z,99122.81
2023-05-25T13:58:45.009Z,99126.41
2023-05-25T14:00:47.609Z,99129.97
2023-05-25T14:02:49.355Z,99119.44
2023-05-25T14:04:51.003Z,99114.94
2023-05-25T14:06:52.523Z,99120.09
2023-05-25T14:08:54.267Z,99116.75
2023-05-25T14:10:56.281Z,99111.88
2023-05-25T14:12:58.654Z,99111.00
2023-05-25T14:15:00.396Z,99117.38
2023-05-25T14:17:10.547Z,99103.59
2023-05-25T14:19:18.121Z,99106.75
2023-05-25T14:21:19.905Z,99102.25
2023-05-25T14:23:21.758Z,99100.56
2023-05-25T14:25:23.281Z,99102.53
2023-05-25T14:27:25.283Z,99102.84
2023-05-25T14:29:29.317Z,99100.34
2023-05-25T14:31:31.346Z,99099.44
2023-05-25T14:33:32.975Z,99104.19
2023-05-25T14:35:34.634Z,99101.69
2023-05-25T14:37:36.478Z,99096.78
2023-05-25T14:39:38.270Z,99096.28
2023-05-25T14:41:42.764Z,99105.06
2023-05-25T14:43:44.334Z,99098.16
2023-05-25T14:45:49.551Z,99100.94
2023-05-25T14:48:03.802Z,99102.03
2023-05-25T14:50:16.087Z,99109.19
2023-05-25T14:52:19.343Z,99103.03
2023-05-25T14:54:21.753Z,99092.91
2023-05-25T14:56:24.798Z,99101.66
2023-05-25T14:58:26.527Z,99094.66
2023-05-25T15:00:31.306Z,99098.94
2023-05-25T15:02:33.068Z,99100.88
2023-05-25T15:04:34.768Z,99107.19
2023-05-25T15:06:36.940Z,99091.78
2023-05-25T15:08:38.673Z,99102.50
2023-05-25T15:10:40.344Z,99091.53
2023-05-25T15:12:41.969Z,99100.72
2023-05-25T15:14:43.550Z,99091.41
2023-05-25T15:16:45.848Z,99099.31
2023-05-25T15:18:47.475Z,99094.81
2023-05-25T15:20:49.301Z,99093.41
2023-05-25T15:22:53.673Z,99092.53
2023-05-25T15:24:55.382Z,99089.19
2023-05-25T15:26:57.026Z,99093.50
2023-05-25T15:28:58.562Z,99099.41
2023-05-25T15:31:02.856Z,99089.22
2023-05-25T15:33:05.212Z,99090.34
2023-05-25T15:35:07.347Z,99086.19
2023-05-25T15:37:10.662Z,99094.16
2023-05-25T15:39:14.697Z,99088.47
2023-05-25T15:41:24.297Z,99094.81
2023-05-25T15:43:28.502Z,99089.94
2023-05-25T15:45:30.327Z,99088.66
2023-05-25T15:47:31.953Z,99084.09
2023-05-25T15:49:36.967Z,99091.28
2023-05-25T15:51:44.403Z,99086.75
2023-05-25T15:53:46.487Z,99092.66
2023-05-25T15:55:48.229Z,99095.75
2023-05-25T15:57:52.653Z,99091.66
2023-05-25T15:59:54.906Z,99097.63
2023-05-25T16:01:56.760Z,99102.34
2023-05-25T16:03:58.775Z,99094.66
2023-05-25T16:06:00.292Z,99091.28
2023-05-25T16:08:04.101Z,99101.97
2023-05-25T16:10:06.502Z,99089.41
2023-05-25T16:12:08.343Z,99096.09
2023-05-25T16:14:09.905Z,99090.75
2023-05-25T16:16:11.431Z,99090.28
2023-05-25T16:18:13.102Z,99094.13
2023-05-25T16:20:14.944Z,99093.25
2023-05-25T16:22:16.553Z,99097.94
2023-05-25T16:24:18.173Z,99094.94
2023-05-25T16:26:19.858Z,99100.81
2023-05-25T16:28:21.523Z,99098.72
2023-05-25T16:30:26.100Z,99102.59
2023-05-25T16:32:28.950Z,99099.72
2023-05-25T16:34:32.601Z,99093.53
2023-05-25T16:36:34.499Z,99099.75
2023-05-25T16:38:36.170Z,99099.66
2023-05-25T16:40:37.878Z,99097.94
2023-05-25T16:42:39.630Z,99091.72
2023-05-25T16:44:43.281Z,99096.88
2023-05-25T16:46:48.166Z,99096.31
2023-05-25T16:48:52.715Z,99095.03
2023-05-25T16:50:54.421Z,99091.28
2023-05-25T16:52:56.951Z,99099.63
2023-05-25T16:55:02.159Z,99092.25
2023-05-25T16:57:03.939Z,99084.91
2023-05-25T16:59:05.433Z,99095.22
2023-05-25T17:01:11.541Z,99095.09
2023-05-25T17:03:16.405Z,99095.00
2023-05-25T17:05:18.202Z,99097.31
2023-05-25T17:07:19.830Z,99099.56
2023-05-25T17:09:21.316Z,99096.66
2023-05-25T17:11:26.458Z,99097.72
2023-05-25T17:13:31.186Z,99102.38
2023-05-25T17:15:32.860Z,99101.88
2023-05-25T17:17:34.416Z,99096.97
2023-05-25T17:19:36.636Z,99108.09
2023-05-25T17:21:38.434Z,99106.44
2023-05-25T17:23:40.353Z,99106.69
2023-05-25T17:25:42.701Z,99094.56
2023-05-25T17:27:44.466Z,99106.84
2023-05-25T17:29:46.069Z,99116.75
2023-05-25T17:31:53.137Z,99104.59
2023-05-25T17:33:55.108Z,99108.09
2023-05-25T17:36:01.189Z,99107.16
2023-05-25T17:38:02.841Z,99107.78
2023-05-25T17:40:05.555Z,99114.88
2023-05-25T17:42:07.522Z,99103.91
2023-05-25T17:44:09.037Z,99105.75
2023-05-25T17:46:10.863Z,99104.84
2023-05-25T17:48:12.503Z,99110.28
2023-05-25T17:50:35.981Z,99116.09
2023-05-25T17:52:40.023Z,99106.06
2023-05-25T17:54:41.667Z,99104.28
2023-05-25T17:56:43.362Z,99107.81
2023-05-25T17:58:47.582Z,99111.63
2023-05-25T18:00:55.416Z,99112.00
2023-05-25T18:02:57.400Z,99117.81
2023-05-25T18:04:58.967Z,99114.41
2023-05-25T18:07:06.569Z,99111.38
2023-05-25T18:09:08.086Z,99112.41
2023-05-25T18:11:09.705Z,99116.22
2023-05-25T18:13:11.200Z,99116.94
2023-05-25T18:15:12.895Z,99116.31
2023-05-25T18:17:14.592Z,99121.47
2023-05-25T18:19:17.861Z,99114.91
2023-05-25T18:21:19.621Z,99123.81
2023-05-25T18:23:22.385Z,99126.47
2023-05-25T18:25:24.131Z,99118.31
2023-05-25T18:27:25.801Z,99128.56
2023-05-25T18:29:30.095Z,99130.72
2023-05-25T18:31:33.212Z,99121.72
2023-05-25T18:33:35.987Z,99126.38
2023-05-25T18:35:38.647Z,99140.56
2023-05-25T18:37:48.990Z,99132.38
2023-05-25T18:39:51.630Z,99133.72
2023-05-25T18:41:53.240Z,99135.56
2023-05-25T18:43:55.134Z,99141.78
2023-05-25T18:45:56.780Z,99134.28
2023-05-25T18:47:58.920Z,99139.59
2023-05-25T18:50:01.010Z,99147.31
2023-05-25T18:52:03.254Z,99145.88
2023-05-25T18:54:10.022Z,99140.47
2023-05-25T18:56:12.277Z,99147.44
2023-05-25T18:58:14.176Z,99144.00
2023-05-25T19:00:17.369Z,99158.16
2023-05-25T19:02:22.001Z,99149.63
2023-05-25T19:04:23.800Z,99155.41
2023-05-25T19:06:25.891Z,99154.44
2023-05-25T19:08:27.506Z,99157.44
2023-05-25T19:10:29.255Z,99165.16
2023-05-25T19:12:32.421Z,99164.53
2023-05-25T19:14:37.311Z,99171.94
2023-05-25T19:16:38.924Z,99177.13
2023-05-25T19:18:40.740Z,99174.69
2023-05-25T19:20:42.541Z,99177.03
2023-05-25T19:22:48.589Z,99182.63
2023-05-25T19:25:00.731Z,99194.78
2023-05-25T19:27:03.007Z,99190.53
2023-05-25T19:29:08.105Z,99189.88
2023-05-25T19:31:10.081Z,99190.41
2023-05-25T19:33:13.792Z,99196.16
2023-05-25T19:35:19.803Z,99200.72
2023-05-25T19:37:21.358Z,99196.50
2023-05-25T19:39:22.882Z,99203.06
2023-05-25T19:41:27.839Z,99214.88
2023-05-25T19:43:32.450Z,99202.56
2023-05-25T19:47:59.387Z,99204.34
2023-05-25T19:50:04.860Z,99208.13
2023-05-25T19:52:06.526Z,99221.41
2023-05-25T19:54:08.193Z,99212.72
2023-05-25T19:56:09.765Z,99218.28
2023-05-25T19:58:11.453Z,99218.78
2023-05-25T20:00:21.359Z,99214.34
2023-05-25T20:02:27.742Z,99218.75
2023-05-25T20:04:34.404Z,99221.22
2023-05-25T20:06:39.897Z,99226.44
2023-05-25T20:08:43.772Z,99226.91
2023-05-25T20:10:45.943Z,99232.63
2023-05-25T20:12:47.573Z,99233.63
2023-05-25T20:14:51.522Z,99238.84
2023-05-25T20:16:55.709Z,99237.81
2023-05-25T20:18:57.510Z,99240.72
2023-05-25T20:20:59.395Z,99239.75
2023-05-25T20:23:01.449Z,99249.91
2023-05-25T20:25:03.084Z,99247.25
2023-05-25T20:27:08.005Z,99244.63
2023-05-25T20:29:09.604Z,99247.03
2023-05-25T20:31:11.673Z,99246.84
2023-05-25T20:33:14.588Z,99247.81
2023-05-25T20:35:20.558Z,99253.53
2023-05-25T20:37:22.281Z,99252.50
2023-05-25T20:39:23.780Z,99257.38
2023-05-25T20:41:25.277Z,99248.38
2023-05-25T20:43:29.360Z,99245.72
2023-05-25T20:45:30.959Z,99256.66
2023-05-25T20:47:35.582Z,99253.16
2023-05-25T20:49:37.147Z,99261.31
2023-05-25T20:51:40.502Z,99259.81
2023-05-25T20:53:42.263Z,99259.09
2023-05-25T20:55:44.089Z,99262.50
2023-05-25T20:57:46.304Z,99261.81
2023-05-25T20:59:48.835Z,99258.34
2023-05-25T21:01:50.647Z,99265.66
2023-05-25T21:03:54.774Z,99267.75
2023-05-25T21:05:56.529Z,99261.50
2023-05-25T21:08:01.555Z,99264.06
2023-05-25T21:10:30.718Z,99274.00
2023-05-25T21:12:37.204Z,99275.75
2023-05-25T21:14:39.991Z,99270.31
2023-05-25T21:16:41.688Z,99274.84
2023-05-25T21:18:43.475Z,99278.53
2023-05-25T21:20:45.374Z,99279.47
2023-05-25T21:22:47.185Z,99278.75
2023-05-25T21:24:50.007Z,99283.59
2023-05-25T21:26:51.789Z,99279.81
2023-05-25T21:28:53.483Z,99285.75
2023-05-25T21:30:56.571Z,99286.69
2023-05-25T21:32:58.496Z,99296.28
2023-05-25T21:35:02.315Z,99302.75
2023-05-25T21:37:04.471Z,99301.22
2023-05-25T21:39:06.182Z,99307.72
2023-05-25T21:41:09.342Z,99308.59
2023-05-25T21:43:11.416Z,99309.03
2023-05-25T21:45:13.556Z,99306.34
2023-05-25T21:47:15.794Z,99315.91
2023-05-25T21:49:17.800Z,99312.06
2023-05-25T21:51:19.752Z,99312.16
2023-05-25T21:53:22.247Z,99320.56
2023-05-25T21:55:24.619Z,99315.13
2023-05-25T21:57:26.172Z,99322.72
2023-05-25T21:59:27.863Z,99330.00
2023-05-25T22:01:30.142Z,99322.88
2023-05-25T22:03:34.537Z,99324.63
2023-05-25T22:05:36.385Z,99324.72
2023-05-25T22:07:42.610Z,99328.38
2023-05-25T22:09:44.833Z,99332.06
2023-05-25T22:11:46.689Z,99332.97
2023-05-25T22:13:49.593Z,99334.72
2023-05-25T22:15:51.346Z,99328.94
2023-05-25T22:17:53.091Z,99327.06
2023-05-25T22:20:06.451Z,99331.56
2023-05-25T22:22:08.753Z,99331.63
2023-05-25T22:24:13.771Z,99324.72
2023-05-25T22:26:15.795Z,99328.38
2023-05-25T22:28:18.586Z,99332.06
2023-05-25T22:30:23.269Z,99336.56
2023-05-25T22:32:25.449Z,99342.72
2023-05-25T22:34:29.780Z,99339.19
2023-05-25T22:36:31.440Z,99338.16
2023-05-25T22:38:33.291Z,99334.31
2023-05-25T22:40:34.950Z,99334.38
2023-05-25T22:42:36.690Z,99346.88
2023-05-25T22:44:38.715Z,99339.47
2023-05-25T22:46:40.564Z,99348.69
2023-05-25T22:48:43.478Z,99344.84
2023-05-25T22:50:45.218Z,99351.28
2023-05-25T22:52:47.781Z,99350.22
2023-05-25T22:54:49.436Z,99347.53
2023-05-25T22:56:51.391Z,99338.13
2023-05-25T22:58:53.176Z,99344.56
2023-05-25T23:00:56.406Z,99339.91
2023-05-25T23:02:58.300Z,99337.22
2023-05-25T23:05:00.431Z,99338.88
2023-05-25T23:07:02.748Z,99344.19
2023-05-25T23:09:14.145Z,99348.66
2023-05-25T23:11:18.449Z,99345.94
2023-05-25T23:13:20.406Z,99349.31
2023-05-25T23:15:27.413Z,99346.28
2023-05-25T23:17:29.135Z,99351.59
2023-05-25T23:19:33.329Z,99349.44
2023-05-25T23:21:35.149Z,99356.38
2023-05-25T23:23:36.859Z,99354.19
2023-05-25T23:25:39.952Z,99353.66
2023-05-25T23:27:41.890Z,99349.81
2023-05-25T23:29:43.405Z,99349.28
2023-05-25T23:31:45.213Z,99349.84
2023-05-25T23:33:47.069Z,99345.72
2023-05-25T23:35:48.994Z,99355.44
2023-05-25T23:37:52.083Z,99351.31
2023-05-25T23:39:53.968Z,99350.78
2023-05-25T23:41:55.721Z,99347.75
2023-05-25T23:43:57.847Z,99356.34
2023-05-25T23:46:02.705Z,99352.22
2023-05-25T23:48:04.812Z,99348.09
2023-05-25T23:50:07.259Z,99349.81
2023-05-25T23:52:11.300Z,99352.03
2023-05-25T23:54:13.088Z,99358.97
2023-05-25T23:56:14.753Z,99352.38
2023-05-25T23:58:19.756Z,99355.44
